Debenham, United Kingdom
Current Conditions -  °F | °C
As of 7:50 AM on Friday 28 Nov 2014 (Local Time) from EGUW Reporting Station
Haze Haze  
Wind Chill: 52°   Ceiling: 400
Heat Index: 52°   Visibility: 2.8mi
Dew Point: 50°   Wind: 8mph
Humidity: 94%   Direction: 80°E
Pressure: 29.62"   Gusts: NA
Location:  52.22°N, 1.18°E
Report Text: EGUW 280750Z 08007KT 4500 BR OVC004 11/10 Q1003 YLO2 BECMG 6000 BKN005 YLO1
Loading
Personal Weather Stations






























Interactive Weather Map New forecast layout! Learn more

10-Day Weather Forecast

Advertisements
Track Severe Weather on mobile